»·PEaware :: N7GL KSLC-KJAC

N7GL :: KSLC-KJAC

FLIGHT INFORMATION

Flight Status: Arrived
Operator: Privately registered:
United States
More flights under this callsign
Pilot: Georg L. (13308)
Aircraft: BEECH AIRCRAFT SUPER KING AIR 350
(B350)
More flights by this aircraft type
Origin: KSLC Salt Lake City Intl
United States
Destination: KJAC Jackson Hole
United States
More flights between these airports :: More routes between these airports
Route: +SLC4 TCH V21 MLD JAC
File this flight plan on PilotEdge
Remarks:
Altitude:
(Current/Filed)
21,000ft
Speed:
(Current/Filed)
299kts
Departed: 21-Oct-20 11:28 AM
Arrived: 21-Oct-20 12:19 PM
Distance/Time
Traveled:
177nm/0:50
Distance/Time
To Go:
Arrived

Flight Plot

Page will automatically refresh every two minutes.

Flight plan parsing failed; only flown route is shown


Map Options




Map Legend


Flown Route
Filed Route
Departure Airport
Arrival Airport
Navaid (VOR, NDB)
Fix

Horizontal Profiles

Position Reports

Time Latitude Longitude Heading Altitude Ground
Speed
21-Oct-20 11:10 40.779185 -111.958420 179 4232ft 0kts
21-Oct-20 11:11 40.779185 -111.958420 179 4232ft 0kts
21-Oct-20 11:12 40.779185 -111.958420 179 4232ft 0kts
21-Oct-20 11:13 40.779185 -111.958420 179 4232ft 0kts
21-Oct-20 11:14 40.779185 -111.958420 179 4232ft 0kts
21-Oct-20 11:15 40.779185 -111.958420 179 4232ft 0kts
21-Oct-20 11:16 40.779185 -111.958420 179 4232ft 0kts
21-Oct-20 11:17 40.779185 -111.958420 179 4232ft 0kts
21-Oct-20 11:18 40.779185 -111.958420 179 4232ft 0kts
21-Oct-20 11:19 40.779185 -111.958420 179 4232ft 0kts
21-Oct-20 11:20 40.779185 -111.958420 179 4232ft 0kts
21-Oct-20 11:21 40.779185 -111.958420 179 4232ft 0kts
21-Oct-20 11:22 40.779018 -111.958733 272 4232ft 3kts
21-Oct-20 11:23 40.778946 -111.959232 206 4232ft 5kts
21-Oct-20 11:24 40.776725 -111.960614 179 4232ft 19kts
21-Oct-20 11:25 40.772710 -111.960905 248 4232ft 0kts
21-Oct-20 11:26 40.772708 -111.960912 249 4232ft 1kts
21-Oct-20 11:27 40.785829 -111.961987 358 4411ft 127kts
21-Oct-20 11:28 40.827172 -111.975647 330 5966ft 173kts
21-Oct-20 11:29 40.873836 -112.006856 331 7508ft 202kts
21-Oct-20 11:30 40.923098 -112.038826 331 9494ft 193kts
21-Oct-20 11:31 40.973872 -112.062089 347 11154ft 202kts
21-Oct-20 11:32 41.029364 -112.067735 342 12786ft 202kts
21-Oct-20 11:33 41.085213 -112.077284 341 14381ft 202kts
21-Oct-20 11:34 41.140461 -112.085261 341 16011ft 197kts
21-Oct-20 11:35 41.194899 -112.094223 340 17415ft 197kts
21-Oct-20 11:36 41.246794 -112.106191 327 18822ft 181kts
21-Oct-20 11:37 41.297011 -112.124513 331 20014ft 185kts
21-Oct-20 11:38 41.347875 -112.142809 331 20938ft 193kts
21-Oct-20 11:39 41.404327 -112.163253 333 21036ft 227kts
21-Oct-20 11:40 41.468602 -112.186077 333 21033ft 249kts
21-Oct-20 11:41 41.536853 -112.210403 334 21028ft 259kts
21-Oct-20 11:42 41.607406 -112.235696 334 21027ft 264kts
21-Oct-20 11:43 41.678817 -112.261431 334 21025ft 268kts
21-Oct-20 11:44 41.750768 -112.287437 334 21024ft 269kts
21-Oct-20 11:45 41.823066 -112.313638 334 21023ft 270kts
21-Oct-20 11:46 41.895515 -112.339955 334 21022ft 270kts
21-Oct-20 11:47 41.967811 -112.366291 334 21022ft 273kts
21-Oct-20 11:48 42.044453 -112.394466 334 21016ft 291kts
21-Oct-20 11:49 42.122868 -112.422999 334 21013ft 293kts
21-Oct-20 11:50 42.205390 -112.432442 7 21007ft 329kts
21-Oct-20 11:51 42.282180 -112.354529 32 21015ft 353kts
21-Oct-20 11:52 42.355244 -112.268159 32 21013ft 347kts
21-Oct-20 11:53 42.427958 -112.182218 32 21015ft 346kts
21-Oct-20 11:54 42.500193 -112.096609 32 21016ft 345kts
21-Oct-20 11:55 42.572456 -112.010667 31 21019ft 346kts
21-Oct-20 11:56 42.644840 -111.924316 31 21003ft 348kts
21-Oct-20 11:57 42.717360 -111.837519 31 20956ft 350kts
21-Oct-20 11:59 42.790323 -111.749833 31 20946ft 350kts
21-Oct-20 12:00 42.863272 -111.661949 31 20948ft 351kts
21-Oct-20 12:01 42.936336 -111.573657 31 20949ft 351kts
21-Oct-20 12:02 43.009309 -111.485118 30 20950ft 352kts
21-Oct-20 12:03 43.082581 -111.395930 30 20952ft 353kts
21-Oct-20 12:04 43.156026 -111.306251 31 20941ft 354kts
21-Oct-20 12:05 43.229130 -111.216635 31 20982ft 352kts
21-Oct-20 12:06 43.306632 -111.122241 32 19151ft 389kts
21-Oct-20 12:07 43.383016 -111.026909 34 16625ft 359kts
21-Oct-20 12:08 43.454392 -110.938466 35 15011ft 322kts
21-Oct-20 12:09 43.519114 -110.858352 34 15005ft 306kts
21-Oct-20 12:10 43.581594 -110.780617 34 15007ft 301kts
21-Oct-20 12:11 43.638294 -110.687062 54 13494ft 341kts
21-Oct-20 12:12 43.698504 -110.591680 27 11007ft 317kts
21-Oct-20 12:13 43.765138 -110.611128 286 9594ft 234kts
21-Oct-20 12:13 43.746010 -110.665513 212 9199ft 202kts
21-Oct-20 12:15 43.695141 -110.693903 204 8061ft 160kts
21-Oct-20 12:15 43.661900 -110.710633 207 7437ft 126kts
21-Oct-20 12:17 43.627948 -110.727376 210 6800ft 106kts
21-Oct-20 12:17 43.607191 -110.737816 198 6429ft 47kts
21-Oct-20 12:18 43.603631 -110.738046 144 6423ft 0kts
21-Oct-20 12:20 43.601520 -110.738978 198 6419ft 16kts
21-Oct-20 12:20 43.598765 -110.739396 60 6414ft 9kts
21-Oct-20 12:21 43.599346 -110.738882 109 6416ft 0kts
21-Oct-20 12:22 43.599346 -110.738882 109 6416ft 0kts
21-Oct-20 12:23 43.599346 -110.738882 109 6416ft 0kts
21-Oct-20 12:24 43.599346 -110.738882 109 6416ft 0kts

Navigation Log

Ident Type
Flight plan parsing failed, navigation log unavailable